LFLY/LYN METAR and TAF weather

Enter ICAO airport designator
Station Type Date Time Source
LFLY METAR 2023/02/06 00:30 UTC NOAA

LFLY 060030Z AUTO 35011KT 9999 OVC018 05/02 Q1033


Station Type Date Time Source
LFLY Decoded METAR 2023/02/06 00:30 UTC NOAA

Lyon / Bron, France (LFLY) 45-43N 004-57E 201M
Feb 05, 2023 - 07:30 PM EST / 2023.02.06 0030 UTC
Wind: from the N (350 degrees) at 13 MPH (11 KT):0
Visibility: greater than 7 mile(s):0
Sky conditions: overcast
Temperature: 41 F (5 C)
Dew Point: 35 F (2 C)
Relative Humidity: 80%
Pressure (altimeter): 30.50 in. Hg (1033 hPa)
ob: LFLY 060030Z AUTO 35011KT 9999 OVC018 05/02 Q1033
cycle: 0

Station Type Date Time Source
LFLY TAF 2023/02/05 18:21 UTC NOAA

TAF LFLY 051700Z 0518/0618 36010KT 9999 BKN030
TEMPO 0518/0603 34015G25KT PROB40
TEMPO 0518/0520 -RA BKN014 PROB40
TEMPO 0522/0610 BKN008

Example: see airport list